sensor_id;sensor_type;location;lat;lon;timestamp;temperature;humidity
1678;DHT22;6034;46.864;15.216;2023-06-22T04:26:07;22.40;99.90
1678;DHT22;6034;46.864;15.216;2023-06-22T04:28:35;22.50;99.90
1678;DHT22;6034;46.864;15.216;2023-06-22T04:31:02;22.60;99.90
1678;DHT22;6034;46.864;15.216;2023-06-22T04:33:29;22.70;99.90
1678;DHT22;6034;46.864;15.216;2023-06-22T04:35:57;22.90;99.90
1678;DHT22;6034;46.864;15.216;2023-06-22T04:38:27;23.00;99.90
1678;DHT22;6034;46.864;15.216;2023-06-22T04:40:54;22.90;99.90
1678;DHT22;6034;46.864;15.216;2023-06-22T04:43:23;22.90;99.90
1678;DHT22;6034;46.864;15.216;2023-06-22T04:45:50;23.10;99.90
1678;DHT22;6034;46.864;15.216;2023-06-22T04:48:18;23.30;99.90
1678;DHT22;6034;46.864;15.216;2023-06-22T04:50:46;23.30;99.90
1678;DHT22;6034;46.864;15.216;2023-06-22T04:53:13;23.40;99.90
1678;DHT22;6034;46.864;15.216;2023-06-22T04:55:41;23.40;99.90
1678;DHT22;6034;46.864;15.216;2023-06-22T04:58:12;23.30;99.90
1678;DHT22;6034;46.864;15.216;2023-06-22T05:00:41;23.40;99.90
1678;DHT22;6034;46.864;15.216;2023-06-22T05:03:08;23.70;99.90
1678;DHT22;6034;46.864;15.216;2023-06-22T05:05:36;23.90;99.90
1678;DHT22;6034;46.864;15.216;2023-06-22T05:08:04;23.90;99.90
1678;DHT22;6034;46.864;15.216;2023-06-22T05:10:32;23.50;99.90
1678;DHT22;6034;46.864;15.216;2023-06-22T05:13:00;23.40;99.90
1678;DHT22;6034;46.864;15.216;2023-06-22T05:15:27;23.40;99.90
1678;DHT22;6034;46.864;15.216;2023-06-22T05:17:57;23.40;99.90
1678;DHT22;6034;46.864;15.216;2023-06-22T05:20:25;23.10;99.90
1678;DHT22;6034;46.864;15.216;2023-06-22T05:22:52;22.90;99.90
1678;DHT22;6034;46.864;15.216;2023-06-22T05:25:20;23.10;99.90
1678;DHT22;6034;46.864;15.216;2023-06-22T05:27:47;23.10;99.90
1678;DHT22;6034;46.864;15.216;2023-06-22T05:30:16;23.20;99.90
1678;DHT22;6034;46.864;15.216;2023-06-22T05:32:44;23.10;99.90
1678;DHT22;6034;46.864;15.216;2023-06-22T05:35:13;22.90;99.90
1678;DHT22;6034;46.864;15.216;2023-06-22T05:37:40;23.00;99.90
1678;DHT22;6034;46.864;15.216;2023-06-22T05:40:09;23.20;99.90
1678;DHT22;6034;46.864;15.216;2023-06-22T05:42:37;23.10;99.90
1678;DHT22;6034;46.864;15.216;2023-06-22T05:45:05;23.00;99.90
1678;DHT22;6034;46.864;15.216;2023-06-22T05:47:33;23.40;99.90
1678;DHT22;6034;46.864;15.216;2023-06-22T05:50:00;23.20;99.90
1678;DHT22;6034;46.864;15.216;2023-06-22T05:52:33;23.10;99.90
1678;DHT22;6034;46.864;15.216;2023-06-22T05:55:02;23.20;99.90
1678;DHT22;6034;46.864;15.216;2023-06-22T05:57:29;23.20;99.90
1678;DHT22;6034;46.864;15.216;2023-06-22T05:59:57;23.30;99.90
1678;DHT22;6034;46.864;15.216;2023-06-22T06:02:24;23.30;99.90
1678;DHT22;6034;46.864;15.216;2023-06-22T06:04:52;23.60;99.90
1678;DHT22;6034;46.864;15.216;2023-06-22T06:07:20;23.80;99.90
1678;DHT22;6034;46.864;15.216;2023-06-22T06:09:49;23.90;99.90
1678;DHT22;6034;46.864;15.216;2023-06-22T06:12:16;24.00;99.90
1678;DHT22;6034;46.864;15.216;2023-06-22T06:14:43;23.40;99.90
1678;DHT22;6034;46.864;15.216;2023-06-22T06:17:11;23.70;99.90
1678;DHT22;6034;46.864;15.216;2023-06-22T06:19:38;23.70;99.90
1678;DHT22;6034;46.864;15.216;2023-06-22T06:22:05;24.00;99.90
1678;DHT22;6034;46.864;15.216;2023-06-22T06:24:33;23.70;99.90
1678;DHT22;6034;46.864;15.216;2023-06-22T06:27:04;23.30;99.90
1678;DHT22;6034;46.864;15.216;2023-06-22T06:29:31;23.40;99.90
1678;DHT22;6034;46.864;15.216;2023-06-22T06:31:59;23.90;99.90
1678;DHT22;6034;46.864;15.216;2023-06-22T06:34:27;24.20;99.90
1678;DHT22;6034;46.864;15.216;2023-06-22T06:36:54;24.00;99.90
1678;DHT22;6034;46.864;15.216;2023-06-22T06:39:21;24.30;99.90
1678;DHT22;6034;46.864;15.216;2023-06-22T06:41:49;24.70;99.90
1678;DHT22;6034;46.864;15.216;2023-06-22T06:44:17;25.00;99.90
1678;DHT22;6034;46.864;15.216;2023-06-22T06:46:45;25.20;99.90
1678;DHT22;6034;46.864;15.216;2023-06-22T06:49:12;24.70;99.90
1678;DHT22;6034;46.864;15.216;2023-06-22T06:51:40;24.70;99.90
1678;DHT22;6034;46.864;15.216;2023-06-22T06:54:07;25.10;99.90
1678;DHT22;6034;46.864;15.216;2023-06-22T06:56:35;25.40;99.90
1678;DHT22;6034;46.864;15.216;2023-06-22T06:59:02;25.70;99.90
1678;DHT22;6034;46.864;15.216;2023-06-22T07:01:31;25.80;99.90
1678;DHT22;6034;46.864;15.216;2023-06-22T07:04:01;25.90;99.90
1678;DHT22;6034;46.864;15.216;2023-06-22T07:06:30;26.00;99.90
1678;DHT22;6034;46.864;15.216;2023-06-22T07:08:59;26.00;99.90
1678;DHT22;6034;46.864;15.216;2023-06-22T07:11:27;26.10;99.90
1678;DHT22;6034;46.864;15.216;2023-06-22T07:13:54;26.10;99.90
1678;DHT22;6034;46.864;15.216;2023-06-22T07:16:21;25.80;99.90
1678;DHT22;6034;46.864;15.216;2023-06-22T07:18:52;26.30;99.90
1678;DHT22;6034;46.864;15.216;2023-06-22T07:21:19;26.50;99.90
1678;DHT22;6034;46.864;15.216;2023-06-22T07:23:46;26.30;99.90
1678;DHT22;6034;46.864;15.216;2023-06-22T07:26:14;26.30;99.90
1678;DHT22;6034;46.864;15.216;2023-06-22T07:28:42;25.40;99.90
1678;DHT22;6034;46.864;15.216;2023-06-22T07:31:10;26.00;99.90
1678;DHT22;6034;46.864;15.216;2023-06-22T07:33:37;26.00;99.90
1678;DHT22;6034;46.864;15.216;2023-06-22T07:36:06;25.40;99.90
1678;DHT22;6034;46.864;15.216;2023-06-22T07:38:34;26.00;99.90
1678;DHT22;6034;46.864;15.216;2023-06-22T07:41:02;26.00;99.90
1678;DHT22;6034;46.864;15.216;2023-06-22T07:43:31;26.00;99.90
1678;DHT22;6034;46.864;15.216;2023-06-22T07:46:00;25.70;99.90
1678;DHT22;6034;46.864;15.216;2023-06-22T07:48:27;26.00;99.90
1678;DHT22;6034;46.864;15.216;2023-06-22T07:50:55;25.60;99.90
1678;DHT22;6034;46.864;15.216;2023-06-22T07:53:24;25.60;99.90
1678;DHT22;6034;46.864;15.216;2023-06-22T07:55:51;26.20;99.90
1678;DHT22;6034;46.864;15.216;2023-06-22T07:58:18;26.50;99.90
1678;DHT22;6034;46.864;15.216;2023-06-22T08:00:47;25.90;99.90
1678;DHT22;6034;46.864;15.216;2023-06-22T08:03:14;25.70;99.90
1678;DHT22;6034;46.864;15.216;2023-06-22T08:05:42;26.20;99.90
1678;DHT22;6034;46.864;15.216;2023-06-22T08:08:09;26.40;99.90
1678;DHT22;6034;46.864;15.216;2023-06-22T08:10:38;26.30;99.90
1678;DHT22;6034;46.864;15.216;2023-06-22T08:13:05;26.70;99.90
1678;DHT22;6034;46.864;15.216;2023-06-22T08:15:32;27.00;99.90
1678;DHT22;6034;46.864;15.216;2023-06-22T08:18:00;27.00;99.90
1678;DHT22;6034;46.864;15.216;2023-06-22T08:20:28;26.80;99.90
1678;DHT22;6034;46.864;15.216;2023-06-22T08:22:56;26.40;99.90
1678;DHT22;6034;46.864;15.216;2023-06-22T08:25:26;26.30;99.90
1678;DHT22;6034;46.864;15.216;2023-06-22T08:27:55;26.70;99.90
1678;DHT22;6034;46.864;15.216;2023-06-22T08:30:22;26.70;99.90
1678;DHT22;6034;46.864;15.216;2023-06-22T08:32:49;27.10;99.90
1678;DHT22;6034;46.864;15.216;2023-06-22T08:35:17;27.20;99.90
1678;DHT22;6034;46.864;15.216;2023-06-22T08:37:44;27.30;99.90
1678;DHT22;6034;46.864;15.216;2023-06-22T11:03:46;29.20;99.90
1678;DHT22;6034;46.864;15.216;2023-06-22T11:06:14;29.30;99.90
1678;DHT22;6034;46.864;15.216;2023-06-22T11:08:44;29.70;99.90
1678;DHT22;6034;46.864;15.216;2023-06-22T11:11:11;29.60;99.90
1678;DHT22;6034;46.864;15.216;2023-06-22T11:13:38;29.80;99.90
1678;DHT22;6034;46.864;15.216;2023-06-22T11:16:06;29.80;99.90
1678;DHT22;6034;46.864;15.216;2023-06-22T11:18:33;29.50;99.90
1678;DHT22;6034;46.864;15.216;2023-06-22T11:21:02;29.30;99.90
1678;DHT22;6034;46.864;15.216;2023-06-22T11:23:30;29.70;99.90
1678;DHT22;6034;46.864;15.216;2023-06-22T11:25:57;29.50;99.90
1678;DHT22;6034;46.864;15.216;2023-06-22T11:28:24;29.80;99.90
1678;DHT22;6034;46.864;15.216;2023-06-22T11:30:52;29.80;99.90
1678;DHT22;6034;46.864;15.216;2023-06-22T11:33:19;29.00;99.90
1678;DHT22;6034;46.864;15.216;2023-06-22T11:35:46;29.50;99.90
1678;DHT22;6034;46.864;15.216;2023-06-22T11:38:15;29.60;99.90
1678;DHT22;6034;46.864;15.216;2023-06-22T11:40:45;29.70;99.90
1678;DHT22;6034;46.864;15.216;2023-06-22T11:43:12;29.90;99.90
1678;DHT22;6034;46.864;15.216;2023-06-22T11:45:40;29.70;99.90
1678;DHT22;6034;46.864;15.216;2023-06-22T11:48:09;30.00;99.90
1678;DHT22;6034;46.864;15.216;2023-06-22T11:50:36;30.10;99.90
1678;DHT22;6034;46.864;15.216;2023-06-22T11:53:03;30.00;99.90
1678;DHT22;6034;46.864;15.216;2023-06-22T11:55:32;30.10;99.90
1678;DHT22;6034;46.864;15.216;2023-06-22T11:57:59;30.10;99.90
1678;DHT22;6034;46.864;15.216;2023-06-22T12:00:29;29.90;99.90
1678;DHT22;6034;46.864;15.216;2023-06-22T12:02:56;30.10;99.90
1678;DHT22;6034;46.864;15.216;2023-06-22T12:05:23;29.10;99.90
1678;DHT22;6034;46.864;15.216;2023-06-22T12:07:53;29.90;99.90
1678;DHT22;6034;46.864;15.216;2023-06-22T12:10:22;30.10;99.90
1678;DHT22;6034;46.864;15.216;2023-06-22T12:12:52;30.30;99.90
1678;DHT22;6034;46.864;15.216;2023-06-22T12:15:19;30.20;99.90
1678;DHT22;6034;46.864;15.216;2023-06-22T12:17:46;29.90;99.90
1678;DHT22;6034;46.864;15.216;2023-06-22T12:20:14;30.20;99.90
1678;DHT22;6034;46.864;15.216;2023-06-22T12:22:41;30.00;99.90
1678;DHT22;6034;46.864;15.216;2023-06-22T12:25:09;30.40;99.90
1678;DHT22;6034;46.864;15.216;2023-06-22T12:27:36;30.50;99.90
1678;DHT22;6034;46.864;15.216;2023-06-22T12:30:06;30.60;99.90
1678;DHT22;6034;46.864;15.216;2023-06-22T12:32:34;30.70;99.90
1678;DHT22;6034;46.864;15.216;2023-06-22T12:35:01;30.80;99.90
1678;DHT22;6034;46.864;15.216;2023-06-22T12:37:29;30.60;99.90
1678;DHT22;6034;46.864;15.216;2023-06-22T12:39:57;30.20;99.90
1678;DHT22;6034;46.864;15.216;2023-06-22T12:42:24;30.50;99.90
1678;DHT22;6034;46.864;15.216;2023-06-22T12:44:56;30.60;99.90
1678;DHT22;6034;46.864;15.216;2023-06-22T12:47:25;30.90;99.90
1678;DHT22;6034;46.864;15.216;2023-06-22T12:49:52;30.80;99.90
1678;DHT22;6034;46.864;15.216;2023-06-22T12:52:19;31.00;99.90
1678;DHT22;6034;46.864;15.216;2023-06-22T12:54:47;31.10;99.90
1678;DHT22;6034;46.864;15.216;2023-06-22T12:57:14;31.00;99.90
1678;DHT22;6034;46.864;15.216;2023-06-22T12:59:43;31.00;99.90
1678;DHT22;6034;46.864;15.216;2023-06-22T13:02:10;30.90;99.90
1678;DHT22;6034;46.864;15.216;2023-06-22T13:04:39;30.80;99.90
1678;DHT22;6034;46.864;15.216;2023-06-22T13:07:07;30.70;99.90
1678;DHT22;6034;46.864;15.216;2023-06-22T13:09:36;30.70;99.90
1678;DHT22;6034;46.864;15.216;2023-06-22T13:12:04;30.80;99.90
1678;DHT22;6034;46.864;15.216;2023-06-22T13:14:32;30.80;99.90
1678;DHT22;6034;46.864;15.216;2023-06-22T13:16:59;30.80;99.90
1678;DHT22;6034;46.864;15.216;2023-06-22T13:19:27;30.40;99.90
1678;DHT22;6034;46.864;15.216;2023-06-22T13:21:59;30.20;99.90
1678;DHT22;6034;46.864;15.216;2023-06-22T13:24:28;29.70;99.90
1678;DHT22;6034;46.864;15.216;2023-06-22T13:26:55;30.00;99.90
1678;DHT22;6034;46.864;15.216;2023-06-22T13:29:23;30.10;99.90
1678;DHT22;6034;46.864;15.216;2023-06-22T13:31:50;30.30;99.90
1678;DHT22;6034;46.864;15.216;2023-06-22T13:34:17;30.50;99.90
1678;DHT22;6034;46.864;15.216;2023-06-22T13:36:44;30.70;99.90
1678;DHT22;6034;46.864;15.216;2023-06-22T13:39:14;30.80;99.90
1678;DHT22;6034;46.864;15.216;2023-06-22T13:41:41;30.10;99.90
1678;DHT22;6034;46.864;15.216;2023-06-22T13:44:09;30.30;99.90
1678;DHT22;6034;46.864;15.216;2023-06-22T13:46:36;30.10;99.90
1678;DHT22;6034;46.864;15.216;2023-06-22T13:49:04;30.40;99.90
1678;DHT22;6034;46.864;15.216;2023-06-22T13:51:31;30.40;99.90
1678;DHT22;6034;46.864;15.216;2023-06-22T13:53:59;30.60;99.90
1678;DHT22;6034;46.864;15.216;2023-06-22T13:56:29;30.40;99.90
1678;DHT22;6034;46.864;15.216;2023-06-22T13:58:56;30.70;99.90
1678;DHT22;6034;46.864;15.216;2023-06-22T14:01:25;30.70;99.90
1678;DHT22;6034;46.864;15.216;2023-06-22T14:03:52;30.80;99.90
1678;DHT22;6034;46.864;15.216;2023-06-22T14:06:19;30.80;99.90
1678;DHT22;6034;46.864;15.216;2023-06-22T14:08:46;30.50;99.90
1678;DHT22;6034;46.864;15.216;2023-06-22T14:11:15;30.50;99.90
1678;DHT22;6034;46.864;15.216;2023-06-22T14:13:44;30.50;99.90
1678;DHT22;6034;46.864;15.216;2023-06-22T14:16:11;30.80;99.90
1678;DHT22;6034;46.864;15.216;2023-06-22T14:18:38;30.80;99.90
1678;DHT22;6034;46.864;15.216;2023-06-22T14:21:06;30.90;99.90
1678;DHT22;6034;46.864;15.216;2023-06-22T14:23:33;30.90;99.90
1678;DHT22;6034;46.864;15.216;2023-06-22T14:26:00;30.50;99.90
1678;DHT22;6034;46.864;15.216;2023-06-22T14:28:28;30.50;99.90
1678;DHT22;6034;46.864;15.216;2023-06-22T14:30:57;30.60;99.90
1678;DHT22;6034;46.864;15.216;2023-06-22T14:33:24;30.80;99.90
1678;DHT22;6034;46.864;15.216;2023-06-22T14:35:52;30.90;99.90
1678;DHT22;6034;46.864;15.216;2023-06-22T14:38:19;31.00;99.90
1678;DHT22;6034;46.864;15.216;2023-06-22T14:40:47;31.00;99.90
1678;DHT22;6034;46.864;15.216;2023-06-22T14:43:14;31.00;99.90
1678;DHT22;6034;46.864;15.216;2023-06-22T14:45:41;30.60;99.90
1678;DHT22;6034;46.864;15.216;2023-06-22T14:48:10;30.70;99.90
1678;DHT22;6034;46.864;15.216;2023-06-22T14:50:37;30.50;99.90
1678;DHT22;6034;46.864;15.216;2023-06-22T14:53:05;30.00;99.90
1678;DHT22;6034;46.864;15.216;2023-06-22T14:55:32;30.00;99.90
1678;DHT22;6034;46.864;15.216;2023-06-22T14:58:00;30.10;99.90
1678;DHT22;6034;46.864;15.216;2023-06-22T15:00:27;30.10;99.90
1678;DHT22;6034;46.864;15.216;2023-06-22T15:02:55;30.20;99.90
1678;DHT22;6034;46.864;15.216;2023-06-22T15:05:24;30.20;99.90
1678;DHT22;6034;46.864;15.216;2023-06-22T15:07:52;30.00;99.90
1678;DHT22;6034;46.864;15.216;2023-06-22T15:10:19;30.20;99.90
1678;DHT22;6034;46.864;15.216;2023-06-22T15:12:46;30.20;99.90
1678;DHT22;6034;46.864;15.216;2023-06-22T15:15:14;30.20;99.90
1678;DHT22;6034;46.864;15.216;2023-06-22T15:17:41;30.20;99.90
1678;DHT22;6034;46.864;15.216;2023-06-22T15:20:09;30.30;99.90
1678;DHT22;6034;46.864;15.216;2023-06-22T15:22:38;30.30;99.90
1678;DHT22;6034;46.864;15.216;2023-06-22T15:25:06;30.30;99.90
1678;DHT22;6034;46.864;15.216;2023-06-22T15:27:33;30.30;99.90
1678;DHT22;6034;46.864;15.216;2023-06-22T15:30:01;30.30;99.90
1678;DHT22;6034;46.864;15.216;2023-06-22T15:32:29;30.30;99.90
1678;DHT22;6034;46.864;15.216;2023-06-22T15:34:57;30.40;99.90
1678;DHT22;6034;46.864;15.216;2023-06-22T15:37:24;30.30;99.90
1678;DHT22;6034;46.864;15.216;2023-06-22T15:39:53;30.30;99.90
1678;DHT22;6034;46.864;15.216;2023-06-22T15:42:21;30.30;99.90
1678;DHT22;6034;46.864;15.216;2023-06-22T15:44:49;30.20;99.90
1678;DHT22;6034;46.864;15.216;2023-06-22T15:47:16;30.30;99.90
1678;DHT22;6034;46.864;15.216;2023-06-22T15:49:47;30.30;99.90
1678;DHT22;6034;46.864;15.216;2023-06-22T15:52:15;30.30;99.90
1678;DHT22;6034;46.864;15.216;2023-06-22T15:54:44;29.90;99.90
1678;DHT22;6034;46.864;15.216;2023-06-22T15:57:13;29.90;99.90
1678;DHT22;6034;46.864;15.216;2023-06-22T15:59:41;30.00;99.90
1678;DHT22;6034;46.864;15.216;2023-06-22T16:02:09;30.10;99.90
1678;DHT22;6034;46.864;15.216;2023-06-22T16:31:49;29.90;99.90
1678;DHT22;6034;46.864;15.216;2023-06-22T16:34:16;30.00;99.90
1678;DHT22;6034;46.864;15.216;2023-06-22T16:36:44;30.00;99.90
1678;DHT22;6034;46.864;15.216;2023-06-22T16:39:11;29.90;99.90
1678;DHT22;6034;46.864;15.216;2023-06-22T16:41:39;29.90;99.90
1678;DHT22;6034;46.864;15.216;2023-06-22T16:44:06;29.90;99.90
1678;DHT22;6034;46.864;15.216;2023-06-22T16:46:33;29.90;99.90
1678;DHT22;6034;46.864;15.216;2023-06-22T16:49:02;29.80;99.90
1678;DHT22;6034;46.864;15.216;2023-06-22T16:51:30;29.80;99.90
1678;DHT22;6034;46.864;15.216;2023-06-22T16:53:57;29.80;99.90
1678;DHT22;6034;46.864;15.216;2023-06-22T16:56:25;29.80;99.90
1678;DHT22;6034;46.864;15.216;2023-06-22T16:58:54;29.70;99.90
1678;DHT22;6034;46.864;15.216;2023-06-22T17:01:23;29.60;99.90
1678;DHT22;6034;46.864;15.216;2023-06-22T17:03:58;29.70;99.90
1678;DHT22;6034;46.864;15.216;2023-06-22T17:06:30;29.60;99.90
1678;DHT22;6034;46.864;15.216;2023-06-22T17:09:00;29.50;99.90
1678;DHT22;6034;46.864;15.216;2023-06-22T17:11:30;29.50;99.90
1678;DHT22;6034;46.864;15.216;2023-06-22T17:13:57;29.50;99.90
1678;DHT22;6034;46.864;15.216;2023-06-22T17:16:26;29.40;99.90
1678;DHT22;6034;46.864;15.216;2023-06-22T17:18:57;29.40;99.90
1678;DHT22;6034;46.864;15.216;2023-06-22T17:21:30;29.30;99.90
1678;DHT22;6034;46.864;15.216;2023-06-22T17:24:00;29.30;99.90
1678;DHT22;6034;46.864;15.216;2023-06-22T17:26:28;29.20;99.90
1678;DHT22;6034;46.864;15.216;2023-06-22T17:28:57;29.20;99.90
1678;DHT22;6034;46.864;15.216;2023-06-22T17:31:35;29.10;99.90
1678;DHT22;6034;46.864;15.216;2023-06-22T17:34:07;29.10;99.90
1678;DHT22;6034;46.864;15.216;2023-06-22T17:36:43;28.90;99.90
1678;DHT22;6034;46.864;15.216;2023-06-22T17:39:11;29.00;99.90
1678;DHT22;6034;46.864;15.216;2023-06-22T17:41:40;28.90;99.90
1678;DHT22;6034;46.864;15.216;2023-06-22T17:44:09;28.90;99.90
1678;DHT22;6034;46.864;15.216;2023-06-22T17:46:39;28.80;99.90
1678;DHT22;6034;46.864;15.216;2023-06-22T17:49:10;28.80;99.90
1678;DHT22;6034;46.864;15.216;2023-06-22T17:51:41;28.70;99.90
1678;DHT22;6034;46.864;15.216;2023-06-22T17:54:08;28.70;99.90
1678;DHT22;6034;46.864;15.216;2023-06-22T17:56:35;28.60;99.90
1678;DHT22;6034;46.864;15.216;2023-06-22T17:59:03;28.60;99.90
1678;DHT22;6034;46.864;15.216;2023-06-22T18:01:35;28.50;99.90
1678;DHT22;6034;46.864;15.216;2023-06-22T18:04:06;28.50;99.90
1678;DHT22;6034;46.864;15.216;2023-06-22T18:06:37;28.50;99.90
1678;DHT22;6034;46.864;15.216;2023-06-22T18:09:07;28.50;99.90
1678;DHT22;6034;46.864;15.216;2023-06-22T18:11:37;28.50;99.90
1678;DHT22;6034;46.864;15.216;2023-06-22T18:14:07;28.50;99.90
1678;DHT22;6034;46.864;15.216;2023-06-22T18:16:37;28.40;99.90
1678;DHT22;6034;46.864;15.216;2023-06-22T18:19:04;28.40;99.90
1678;DHT22;6034;46.864;15.216;2023-06-22T18:21:31;28.40;99.90
1678;DHT22;6034;46.864;15.216;2023-06-22T18:23:59;28.40;99.90
1678;DHT22;6034;46.864;15.216;2023-06-22T18:26:29;28.40;99.90
1678;DHT22;6034;46.864;15.216;2023-06-22T18:28:57;28.40;99.90
1678;DHT22;6034;46.864;15.216;2023-06-22T18:31:25;28.40;99.90
1678;DHT22;6034;46.864;15.216;2023-06-22T18:33:55;28.40;99.90
1678;DHT22;6034;46.864;15.216;2023-06-22T18:36:25;28.30;99.90
1678;DHT22;6034;46.864;15.216;2023-06-22T18:38:53;28.30;99.90
1678;DHT22;6034;46.864;15.216;2023-06-22T18:41:35;28.20;99.90
1678;DHT22;6034;46.864;15.216;2023-06-22T18:44:03;28.10;99.90
1678;DHT22;6034;46.864;15.216;2023-06-22T18:46:35;28.10;99.90
1678;DHT22;6034;46.864;15.216;2023-06-22T18:49:10;28.10;99.90
1678;DHT22;6034;46.864;15.216;2023-06-22T18:51:52;28.00;99.90
1678;DHT22;6034;46.864;15.216;2023-06-22T18:54:22;28.10;99.90
1678;DHT22;6034;46.864;15.216;2023-06-22T18:56:56;28.00;99.90
1678;DHT22;6034;46.864;15.216;2023-06-22T18:59:50;27.90;99.90
1678;DHT22;6034;46.864;15.216;2023-06-22T19:02:44;27.90;99.90
1678;DHT22;6034;46.864;15.216;2023-06-22T19:05:17;27.90;99.90
1678;DHT22;6034;46.864;15.216;2023-06-22T19:07:58;27.90;99.90
1678;DHT22;6034;46.864;15.216;2023-06-22T19:10:29;27.80;99.90
1678;DHT22;6034;46.864;15.216;2023-06-22T19:13:19;27.80;99.90
1678;DHT22;6034;46.864;15.216;2023-06-22T19:15:47;27.70;99.90
1678;DHT22;6034;46.864;15.216;2023-06-22T19:18:20;27.70;99.90
1678;DHT22;6034;46.864;15.216;2023-06-22T19:20:48;27.70;99.90
1678;DHT22;6034;46.864;15.216;2023-06-22T19:23:28;27.60;99.90
1678;DHT22;6034;46.864;15.216;2023-06-22T19:25:57;27.60;99.90
1678;DHT22;6034;46.864;15.216;2023-06-22T19:28:28;27.60;99.90
1678;DHT22;6034;46.864;15.216;2023-06-22T19:30:58;27.60;99.90
1678;DHT22;6034;46.864;15.216;2023-06-22T19:33:27;27.60;99.90
1678;DHT22;6034;46.864;15.216;2023-06-22T19:35:56;27.50;99.90
1678;DHT22;6034;46.864;15.216;2023-06-22T19:38:24;27.50;99.90
1678;DHT22;6034;46.864;15.216;2023-06-22T19:40:52;27.50;99.90
1678;DHT22;6034;46.864;15.216;2023-06-22T19:43:20;27.50;99.90
1678;DHT22;6034;46.864;15.216;2023-06-22T19:45:50;27.50;99.90
1678;DHT22;6034;46.864;15.216;2023-06-22T19:48:17;27.50;99.90
1678;DHT22;6034;46.864;15.216;2023-06-22T19:50:45;27.50;99.90
1678;DHT22;6034;46.864;15.216;2023-06-22T19:53:15;27.50;99.90
1678;DHT22;6034;46.864;15.216;2023-06-22T19:55:44;27.40;99.90
1678;DHT22;6034;46.864;15.216;2023-06-22T19:58:13;27.50;99.90
1678;DHT22;6034;46.864;15.216;2023-06-22T20:00:41;27.50;99.90
1678;DHT22;6034;46.864;15.216;2023-06-22T20:03:17;27.40;99.90
1678;DHT22;6034;46.864;15.216;2023-06-22T20:05:45;27.40;99.90
1678;DHT22;6034;46.864;15.216;2023-06-22T20:08:14;27.30;99.90
1678;DHT22;6034;46.864;15.216;2023-06-22T20:10:43;27.30;99.90
1678;DHT22;6034;46.864;15.216;2023-06-22T20:13:12;27.30;99.90
1678;DHT22;6034;46.864;15.216;2023-06-22T20:15:40;27.40;99.90
1678;DHT22;6034;46.864;15.216;2023-06-22T20:18:11;27.30;99.90
1678;DHT22;6034;46.864;15.216;2023-06-22T20:20:42;27.30;99.90
1678;DHT22;6034;46.864;15.216;2023-06-22T20:23:10;27.20;99.90
1678;DHT22;6034;46.864;15.216;2023-06-22T20:25:39;27.20;99.90
1678;DHT22;6034;46.864;15.216;2023-06-22T20:28:11;26.80;99.90
1678;DHT22;6034;46.864;15.216;2023-06-22T20:30:39;27.00;99.90
1678;DHT22;6034;46.864;15.216;2023-06-22T20:33:16;27.10;99.90
1678;DHT22;6034;46.864;15.216;2023-06-22T20:35:44;27.20;99.90
1678;DHT22;6034;46.864;15.216;2023-06-22T20:38:11;27.20;99.90
1678;DHT22;6034;46.864;15.216;2023-06-22T20:40:39;27.20;99.90
1678;DHT22;6034;46.864;15.216;2023-06-22T20:43:07;27.20;99.90
1678;DHT22;6034;46.864;15.216;2023-06-22T20:45:35;27.20;99.90
1678;DHT22;6034;46.864;15.216;2023-06-22T20:48:05;27.20;99.90
1678;DHT22;6034;46.864;15.216;2023-06-22T20:50:35;27.10;99.90
1678;DHT22;6034;46.864;15.216;2023-06-22T20:53:05;27.10;99.90
1678;DHT22;6034;46.864;15.216;2023-06-22T20:55:33;27.10;99.90
1678;DHT22;6034;46.864;15.216;2023-06-22T20:58:04;27.00;99.90
1678;DHT22;6034;46.864;15.216;2023-06-22T21:00:31;27.00;99.90
1678;DHT22;6034;46.864;15.216;2023-06-22T21:03:01;27.00;99.90
1678;DHT22;6034;46.864;15.216;2023-06-22T21:05:29;27.00;99.90
1678;DHT22;6034;46.864;15.216;2023-06-22T21:07:58;26.90;99.90
1678;DHT22;6034;46.864;15.216;2023-06-22T21:10:25;27.00;99.90
1678;DHT22;6034;46.864;15.216;2023-06-22T21:12:52;27.00;99.90
1678;DHT22;6034;46.864;15.216;2023-06-22T21:15:20;27.00;99.90
1678;DHT22;6034;46.864;15.216;2023-06-22T21:17:47;27.00;99.90
1678;DHT22;6034;46.864;15.216;2023-06-22T21:20:17;26.90;99.90
1678;DHT22;6034;46.864;15.216;2023-06-22T21:22:44;26.90;99.90
1678;DHT22;6034;46.864;15.216;2023-06-22T21:25:14;26.90;99.90
1678;DHT22;6034;46.864;15.216;2023-06-22T21:27:42;26.90;99.90
1678;DHT22;6034;46.864;15.216;2023-06-22T21:30:11;26.80;99.90
1678;DHT22;6034;46.864;15.216;2023-06-22T21:32:39;26.90;99.90
1678;DHT22;6034;46.864;15.216;2023-06-22T21:35:07;26.90;99.90
1678;DHT22;6034;46.864;15.216;2023-06-22T21:37:36;26.90;99.90
1678;DHT22;6034;46.864;15.216;2023-06-22T21:40:06;26.90;99.90
1678;DHT22;6034;46.864;15.216;2023-06-22T21:42:35;26.90;99.90
1678;DHT22;6034;46.864;15.216;2023-06-22T21:45:03;26.90;99.90
1678;DHT22;6034;46.864;15.216;2023-06-22T21:47:30;26.80;99.90
1678;DHT22;6034;46.864;15.216;2023-06-22T21:49:57;26.80;99.90
1678;DHT22;6034;46.864;15.216;2023-06-22T21:52:25;26.80;99.90
1678;DHT22;6034;46.864;15.216;2023-06-22T21:54:55;26.70;99.90
1678;DHT22;6034;46.864;15.216;2023-06-22T21:57:22;26.70;99.90
1678;DHT22;6034;46.864;15.216;2023-06-22T21:59:54;26.70;99.90
